Spanish Flat, California
Current Conditions -  °F | °C
As of 10:54 AM on Saturday 25 Oct 2014 (Local Time) from KAPC Reporting Station
Overcast Overcast  
Wind Chill: 68°   Ceiling: 4200
Heat Index: 68°   Visibility: 10mi
Dew Point: 61°   Wind: 17mph
Humidity: 78%   Direction: 200°SSW
Pressure: 30.02"   Gusts: NA
Location:  38.3929°N, 122.291°W
Report Text: KAPC 251754Z 20015KT 10SM SCT019 BKN042 OVC070 20/16 A3002 RMK AO2 RAB41E50 SLP157 P0000 60029 T02000161 10200 20144 53014
Loading
Personal Weather Stations






























Interactive Weather Map
Tropical Storm Tracking
New forecast layout! Learn more

10-Day Weather Forecast

Advertisements
Track Severe Weather on mobile